createdAt,value
2018-10-09T00:04:42.695Z,6.10
2018-10-09T00:09:40.181Z,6.37
2018-10-09T00:14:37.677Z,6.67
2018-10-09T00:19:39.148Z,6.44
2018-10-09T00:24:36.792Z,6.70
2018-10-09T00:29:34.320Z,6.55
2018-10-09T00:34:31.793Z,6.29
2018-10-09T00:39:29.276Z,6.37
2018-10-09T00:44:26.758Z,6.50
2018-10-09T00:49:41.799Z,6.28
2018-10-09T00:54:39.406Z,6.74
2018-10-09T00:59:39.034Z,7.18
2018-10-09T01:04:38.074Z,7.24
2018-10-09T01:09:37.848Z,7.08
2018-10-09T01:14:37.139Z,6.64
2018-10-09T01:19:35.862Z,6.38
2018-10-09T01:24:33.345Z,6.28
2018-10-09T01:29:30.827Z,6.30
2018-10-09T01:34:28.306Z,6.05
2018-10-09T01:39:25.777Z,6.56
2018-10-09T01:44:23.261Z,5.94
2018-10-09T01:49:32.507Z,6.32
2018-10-09T01:54:30.058Z,5.98
2018-10-09T01:59:27.525Z,5.74
2018-10-09T02:04:25.201Z,5.68
2018-10-09T02:09:22.806Z,5.69
2018-10-09T02:14:20.351Z,5.56
2018-10-09T02:24:33.604Z,5.57
2018-10-09T02:29:31.065Z,5.50
2018-10-09T02:34:28.533Z,5.37
2018-10-09T02:39:26.000Z,6.20
2018-10-09T02:44:23.477Z,5.93
2018-10-09T02:49:25.467Z,5.58
2018-10-09T02:54:23.093Z,5.39
2018-10-09T02:59:20.577Z,5.32
2018-10-09T03:04:18.062Z,5.73
2018-10-09T03:09:15.546Z,5.46
2018-10-09T03:14:13.095Z,5.25
2018-10-09T03:19:13.037Z,5.19
2018-10-09T03:24:10.521Z,5.19
2018-10-09T03:29:08.027Z,5.87
2018-10-09T03:34:05.877Z,5.40
2018-10-09T03:39:04.573Z,5.23
2018-10-09T03:44:02.084Z,5.46
2018-10-09T03:48:59.582Z,5.48
2018-10-09T03:53:57.070Z,5.94
2018-10-09T03:58:54.550Z,6.05
2018-10-09T04:03:52.056Z,5.59
2018-10-09T04:08:49.578Z,5.44
2018-10-09T04:13:47.066Z,5.89
2018-10-09T04:18:44.657Z,5.83
2018-10-09T04:23:42.182Z,6.15
2018-10-09T04:28:39.673Z,5.80
2018-10-09T04:33:39.916Z,6.10
2018-10-09T04:38:37.528Z,5.65
2018-10-09T04:43:43.963Z,5.46
2018-10-09T04:48:50.896Z,5.32
2018-10-09T04:53:51.975Z,6.01
2018-10-09T04:58:52.576Z,5.47
2018-10-09T05:03:57.984Z,5.55
2018-10-09T05:08:55.549Z,5.37
2018-10-09T05:13:53.045Z,5.28
2018-10-09T05:18:50.629Z,5.60
2018-10-09T05:23:48.129Z,5.47
2018-10-09T05:28:45.638Z,5.74
2018-10-09T05:33:43.144Z,5.41
2018-10-09T05:38:40.625Z,5.56
2018-10-09T05:43:38.177Z,5.39
2018-10-09T05:48:35.725Z,5.82
2018-10-09T05:53:33.239Z,5.42
2018-10-09T05:58:30.754Z,5.42
2018-10-09T06:03:28.233Z,5.49
2018-10-09T06:08:25.775Z,5.55
2018-10-09T06:13:23.281Z,5.82
2018-10-09T06:18:20.988Z,5.88
2018-10-09T06:23:18.474Z,6.17
2018-10-09T06:28:16.243Z,6.61
2018-10-09T06:33:13.715Z,7.11
2018-10-09T06:38:11.213Z,8.01
2018-10-09T06:43:08.683Z,8.26
2018-10-09T06:48:06.275Z,8.49
2018-10-09T06:53:03.842Z,8.52
2018-10-09T06:58:01.474Z,8.78
2018-10-09T07:02:58.994Z,8.40
2018-10-09T07:07:56.502Z,8.37
2018-10-09T07:12:54.454Z,8.58
2018-10-09T07:17:51.982Z,8.96
2018-10-09T07:22:49.521Z,9.19
2018-10-09T07:27:47.136Z,9.73
2018-10-09T07:32:44.639Z,9.75
2018-10-09T07:37:42.199Z,9.80
2018-10-09T07:42:39.745Z,10.10
2018-10-09T07:47:37.290Z,10.32
2018-10-09T07:52:34.837Z,10.70
2018-10-09T07:57:32.425Z,11.25
2018-10-09T08:02:29.949Z,11.72
2018-10-09T08:07:27.483Z,12.19
2018-10-09T08:12:25.049Z,12.50
2018-10-09T08:17:22.581Z,12.47
2018-10-09T08:22:20.113Z,12.66
2018-10-09T08:27:17.724Z,12.96
2018-10-09T08:32:15.241Z,13.15
2018-10-09T08:37:12.802Z,13.00
2018-10-09T08:42:10.313Z,12.95
2018-10-09T08:47:07.849Z,13.55
2018-10-09T08:52:05.445Z,14.24
2018-10-09T08:57:02.948Z,14.72
2018-10-09T09:02:00.502Z,14.57
2018-10-09T09:06:58.097Z,15.00
2018-10-09T09:11:55.621Z,15.43
2018-10-09T09:16:53.157Z,15.27
2018-10-09T09:21:50.674Z,15.09
2018-10-09T09:26:48.203Z,15.18
2018-10-09T09:31:46.896Z,15.57
2018-10-09T09:36:44.427Z,16.15
2018-10-09T09:41:41.945Z,16.21
2018-10-09T09:46:39.436Z,16.61
2018-10-09T09:51:36.965Z,17.03
2018-10-09T09:56:34.478Z,17.36
2018-10-09T10:01:37.708Z,17.43
2018-10-09T10:06:35.285Z,17.65
2018-10-09T10:11:32.830Z,18.03
2018-10-09T10:16:30.442Z,17.54
2018-10-09T10:21:28.063Z,17.07
2018-10-09T10:26:25.565Z,16.96
2018-10-09T10:31:23.123Z,17.33
2018-10-09T10:36:20.650Z,17.32
2018-10-09T10:41:18.185Z,17.99
2018-10-09T10:46:15.716Z,18.14
2018-10-09T10:51:13.246Z,18.12
2018-10-09T10:56:10.777Z,17.97
2018-10-09T11:01:08.309Z,18.69
2018-10-09T11:06:05.913Z,19.23
2018-10-09T11:11:03.457Z,18.85
2018-10-09T11:16:01.839Z,18.68
2018-10-09T11:20:59.368Z,19.64
2018-10-09T11:25:56.938Z,19.33
2018-10-09T11:30:54.713Z,20.29
2018-10-09T11:35:52.261Z,20.62
2018-10-09T11:40:49.750Z,20.85
2018-10-09T11:45:47.282Z,19.76
2018-10-09T11:50:44.915Z,20.57
2018-10-09T11:55:42.454Z,19.89
2018-10-09T12:00:41.230Z,19.37
2018-10-09T12:05:38.813Z,19.42
2018-10-09T12:10:36.443Z,19.11
2018-10-09T12:15:34.051Z,19.13
2018-10-09T12:20:32.922Z,19.70
2018-10-09T12:25:30.558Z,19.54
2018-10-09T12:30:28.094Z,20.23
2018-10-09T12:35:25.606Z,19.73
2018-10-09T12:40:24.757Z,19.79
2018-10-09T12:45:23.956Z,20.19
2018-10-09T12:50:24.208Z,20.16
2018-10-09T12:55:23.158Z,19.40
2018-10-09T13:00:22.802Z,19.63
2018-10-09T13:05:24.054Z,19.47
2018-10-09T13:10:21.679Z,19.88
2018-10-09T13:15:20.092Z,19.05
2018-10-09T13:20:18.769Z,19.20
2018-10-09T13:25:16.319Z,19.14
2018-10-09T13:30:13.882Z,18.98
2018-10-09T13:35:11.439Z,19.11
2018-10-09T13:40:08.973Z,19.05
2018-10-09T13:45:06.526Z,19.51
2018-10-09T13:50:05.493Z,19.51
2018-10-09T13:55:03.091Z,19.61
2018-10-09T14:00:00.642Z,19.88
2018-10-09T14:04:58.199Z,20.35
2018-10-09T14:09:55.724Z,20.34
2018-10-09T14:14:53.325Z,19.62
2018-10-09T14:19:57.774Z,19.98
2018-10-09T14:24:55.312Z,20.14
2018-10-09T14:29:55.790Z,20.25
2018-10-09T14:34:53.368Z,20.12
2018-10-09T14:39:50.908Z,20.18
2018-10-09T14:44:48.504Z,20.23
2018-10-09T14:49:50.029Z,20.17
2018-10-09T14:54:47.620Z,20.49
2018-10-09T14:59:45.152Z,20.39
2018-10-09T15:04:42.657Z,20.04
2018-10-09T15:09:40.198Z,19.92
2018-10-09T15:14:37.746Z,20.00
2018-10-09T15:19:40.280Z,19.71
2018-10-09T15:24:38.822Z,20.15
2018-10-09T15:29:36.394Z,20.23
2018-10-09T15:34:39.212Z,19.92
2018-10-09T15:39:38.193Z,19.63
2018-10-09T15:44:42.524Z,19.67
2018-10-09T15:49:46.096Z,19.28
2018-10-09T15:54:43.782Z,19.28
2018-10-09T15:59:41.298Z,19.13
2018-10-09T16:04:38.828Z,18.97
2018-10-09T16:09:37.376Z,18.73
2018-10-09T16:14:34.977Z,18.38
2018-10-09T16:19:42.652Z,17.84
2018-10-09T16:24:40.222Z,17.58
2018-10-09T16:29:37.765Z,17.05
2018-10-09T16:34:37.430Z,16.62
2018-10-09T16:39:35.399Z,16.26
2018-10-09T16:44:32.955Z,15.90
2018-10-09T16:49:31.008Z,15.56
2018-10-09T16:54:29.552Z,15.55
2018-10-09T16:59:27.244Z,15.48
2018-10-09T17:04:25.704Z,14.89
2018-10-09T17:09:24.542Z,14.56
2018-10-09T17:14:23.751Z,14.34
2018-10-09T17:19:24.276Z,14.06
2018-10-09T17:24:21.845Z,13.88
2018-10-09T17:29:19.516Z,13.85
2018-10-09T17:34:17.020Z,13.55
2018-10-09T17:39:14.621Z,13.67
2018-10-09T17:44:12.126Z,13.43
2018-10-09T17:49:09.739Z,13.23
2018-10-09T17:54:07.292Z,13.57
2018-10-09T17:59:04.801Z,13.28
2018-10-09T18:04:02.405Z,13.27
2018-10-09T18:08:59.927Z,12.99
2018-10-09T18:13:57.406Z,12.89
2018-10-09T18:18:55.224Z,12.68
2018-10-09T18:23:55.111Z,12.49
2018-10-09T18:28:52.762Z,12.37
2018-10-09T18:33:54.517Z,12.20
2018-10-09T18:39:01.639Z,12.10
2018-10-09T18:44:04.709Z,11.95
2018-10-09T18:49:05.229Z,11.91
2018-10-09T18:54:06.933Z,11.83
2018-10-09T18:59:04.713Z,11.89
2018-10-09T19:04:02.205Z,12.04
2018-10-09T19:08:59.689Z,11.62
2018-10-09T19:13:57.482Z,12.22
2018-10-09T19:18:54.970Z,12.09
2018-10-09T19:23:52.639Z,11.80
2018-10-09T19:28:50.130Z,12.07
2018-10-09T19:33:47.689Z,11.55
2018-10-09T19:38:45.217Z,11.31
2018-10-09T19:43:42.768Z,11.89
2018-10-09T19:48:40.256Z,11.40
2018-10-09T19:53:39.006Z,11.16
2018-10-09T19:58:36.577Z,11.11
2018-10-09T20:03:34.126Z,10.93
2018-10-09T20:08:31.665Z,10.76
2018-10-09T20:13:29.477Z,10.64
2018-10-09T20:18:27.981Z,10.67
2018-10-09T20:23:27.943Z,10.60
2018-10-09T20:28:28.943Z,10.62
2018-10-09T20:33:29.262Z,10.55
2018-10-09T20:38:28.349Z,10.41
2018-10-09T20:43:26.562Z,10.69
2018-10-09T20:48:24.398Z,10.72
2018-10-09T20:53:22.997Z,10.63
2018-10-09T20:58:20.558Z,10.31
2018-10-09T21:03:18.034Z,10.19
2018-10-09T21:08:15.625Z,10.05
2018-10-09T21:13:13.121Z,10.02
2018-10-09T21:18:10.687Z,9.96
2018-10-09T21:23:09.346Z,10.09
2018-10-09T21:28:06.981Z,10.58
2018-10-09T21:33:04.504Z,10.38
2018-10-09T21:38:03.637Z,10.51
2018-10-09T21:43:01.118Z,10.17
2018-10-09T21:48:00.682Z,9.86
2018-10-09T21:53:03.143Z,9.74
2018-10-09T21:58:03.342Z,9.61
2018-10-09T22:03:00.934Z,10.06
2018-10-09T22:07:58.419Z,9.74
2018-10-09T22:12:55.894Z,9.60
2018-10-09T22:17:53.405Z,9.59
2018-10-09T22:22:57.799Z,9.76
2018-10-09T22:27:56.221Z,9.46
2018-10-09T22:32:53.715Z,9.34
2018-10-09T22:37:51.214Z,9.29
2018-10-09T22:42:48.698Z,9.24
2018-10-09T22:47:46.202Z,9.16
2018-10-09T22:52:46.890Z,9.11
2018-10-09T22:57:44.509Z,9.28
2018-10-09T23:02:42.095Z,9.06
2018-10-09T23:07:40.034Z,9.66
2018-10-09T23:12:37.577Z,9.58
2018-10-09T23:17:35.889Z,9.68
2018-10-09T23:22:41.092Z,9.49
2018-10-09T23:27:38.897Z,9.13
2018-10-09T23:32:36.377Z,8.99
2018-10-09T23:37:33.878Z,8.97
2018-10-09T23:42:31.488Z,8.99
2018-10-09T23:47:28.949Z,8.98
2018-10-09T23:52:29.038Z,9.04
2018-10-09T23:57:26.626Z,8.99
